createdAt,value
2019-05-17T00:00:00.494Z,100861.50
2019-05-17T00:02:27.375Z,100862.05
2019-05-17T00:04:56.462Z,100862.44
2019-05-17T00:07:23.266Z,100854.13
2019-05-17T00:09:50.042Z,100854.59
2019-05-17T00:12:16.945Z,100857.20
2019-05-17T00:14:43.715Z,100862.80
2019-05-17T00:17:10.620Z,100862.38
2019-05-17T00:19:37.923Z,100857.11
2019-05-17T00:22:07.121Z,100858.78
2019-05-17T00:24:33.542Z,100855.73
2019-05-17T00:27:00.340Z,100859.17
2019-05-17T00:29:27.209Z,100851.38
2019-05-17T00:31:54.022Z,100844.77
2019-05-17T00:34:21.166Z,100843.97
2019-05-17T00:36:48.165Z,100836.54
2019-05-17T00:39:16.689Z,100827.39
2019-05-17T00:41:43.814Z,100818.17
2019-05-17T00:44:10.666Z,100819.89
2019-05-17T00:46:37.526Z,100812.47
2019-05-17T00:49:06.526Z,100808.12
2019-05-17T00:51:33.412Z,100812.58
2019-05-17T00:54:00.187Z,100815.55
2019-05-17T00:56:26.962Z,100818.08
2019-05-17T00:58:53.741Z,100812.41
2019-05-17T01:01:21.043Z,100819.01
2019-05-17T01:03:48.146Z,100810.73
2019-05-17T01:06:16.945Z,100812.85
2019-05-17T01:08:43.794Z,100816.86
2019-05-17T01:11:10.698Z,100810.40
2019-05-17T01:13:37.677Z,100808.28
2019-05-17T01:16:04.476Z,100812.72
2019-05-17T01:18:31.230Z,100809.24
2019-05-17T01:20:58.038Z,100807.19
2019-05-17T01:23:26.981Z,100813.22
2019-05-17T01:25:56.541Z,100814.89
2019-05-17T01:28:22.894Z,100810.17
2019-05-17T01:30:49.823Z,100810.61
2019-05-17T01:33:17.164Z,100813.73
2019-05-17T01:35:46.480Z,100818.09
2019-05-17T01:38:13.080Z,100808.63
2019-05-17T01:40:39.869Z,100806.89
2019-05-17T01:43:07.847Z,100811.56
2019-05-17T01:45:36.534Z,100811.99
2019-05-17T01:48:03.854Z,100809.02
2019-05-17T01:50:30.775Z,100806.33
2019-05-17T01:52:57.547Z,100794.98
2019-05-17T01:55:26.420Z,100796.81
2019-05-17T01:57:53.132Z,100796.80
2019-05-17T02:00:19.991Z,100797.80
2019-05-17T02:02:48.912Z,100792.52
2019-05-17T02:05:20.074Z,100795.06
2019-05-17T02:07:46.944Z,100787.66
2019-05-17T02:10:17.121Z,100784.66
2019-05-17T02:12:48.756Z,100785.95
2019-05-17T02:15:13.603Z,100790.03
2019-05-17T02:17:40.367Z,100792.31
2019-05-17T02:20:07.987Z,100786.11
2019-05-17T02:22:36.696Z,100793.94
2019-05-17T02:25:04.468Z,100790.83
2019-05-17T02:27:35.700Z,100785.66
2019-05-17T02:30:02.662Z,100785.67
2019-05-17T02:32:28.799Z,100783.54
2019-05-17T02:34:55.593Z,100782.18
2019-05-17T02:37:23.245Z,100786.05
2019-05-17T02:39:58.210Z,100785.61
2019-05-17T02:42:22.295Z,100781.19
2019-05-17T02:44:47.963Z,100783.34
2019-05-17T02:47:14.739Z,100775.21
2019-05-17T02:49:42.431Z,100780.75
2019-05-17T02:52:12.481Z,100785.53
2019-05-17T02:54:39.051Z,100792.63
2019-05-17T02:57:05.975Z,100799.76
2019-05-17T02:59:33.408Z,100796.23
2019-05-17T03:02:03.203Z,100790.94
2019-05-17T03:04:32.497Z,100789.53
2019-05-17T03:06:57.796Z,100789.58
2019-05-17T03:09:24.612Z,100794.74
2019-05-17T03:11:56.683Z,100793.87
2019-05-17T03:14:22.980Z,100783.88
2019-05-17T03:16:49.364Z,100797.92
2019-05-17T03:19:16.293Z,100787.03
2019-05-17T03:21:43.338Z,100787.52
2019-05-17T03:24:13.354Z,100780.01
2019-05-17T03:26:38.929Z,100792.63
2019-05-17T03:29:06.234Z,100785.17
2019-05-17T03:31:40.605Z,100792.16
2019-05-17T03:34:06.414Z,100784.73
2019-05-17T03:36:35.569Z,100784.73
2019-05-17T03:39:02.861Z,100783.41
2019-05-17T03:41:29.566Z,100781.18
2019-05-17T03:43:57.025Z,100782.85
2019-05-17T03:46:23.974Z,100779.30
2019-05-17T03:48:53.185Z,100784.47
2019-05-17T03:51:23.189Z,100782.70
2019-05-17T03:53:48.690Z,100783.52
2019-05-17T03:56:15.629Z,100780.03
2019-05-17T03:58:43.322Z,100781.77
2019-05-17T04:01:13.671Z,100787.77
2019-05-17T04:03:43.097Z,100782.02
2019-05-17T04:06:08.199Z,100782.05
2019-05-17T04:08:35.300Z,100784.73
2019-05-17T04:11:17.529Z,100785.16
2019-05-17T04:13:33.768Z,100781.67
2019-05-17T04:16:03.524Z,100782.19
2019-05-17T04:18:29.275Z,100787.34
2019-05-17T04:20:56.056Z,100785.18
2019-05-17T04:23:23.401Z,100775.91
2019-05-17T04:25:53.192Z,100781.97
2019-05-17T04:28:22.766Z,100779.42
2019-05-17T04:30:48.449Z,100783.86
2019-05-17T04:33:15.303Z,100779.52
2019-05-17T04:35:43.154Z,100777.12
2019-05-17T04:38:12.747Z,100773.48
2019-05-17T04:40:42.902Z,100771.22
2019-05-17T04:43:09.863Z,100764.45
2019-05-17T04:45:36.751Z,100766.91
2019-05-17T04:48:04.391Z,100767.16
2019-05-17T04:50:33.493Z,100764.13
2019-05-17T04:53:02.593Z,100764.48
2019-05-17T04:55:29.360Z,100761.68
2019-05-17T04:57:56.250Z,100762.77
2019-05-17T05:00:23.176Z,100756.53
2019-05-17T05:02:52.547Z,100758.23
2019-05-17T05:05:22.443Z,100752.12
2019-05-17T05:07:47.951Z,100752.89
2019-05-17T05:10:15.153Z,100749.63
2019-05-17T05:12:43.481Z,100749.69
2019-05-17T05:15:12.713Z,100739.77
2019-05-17T05:17:42.233Z,100744.23
2019-05-17T05:20:08.224Z,100737.84
2019-05-17T05:22:35.183Z,100740.38
2019-05-17T05:25:02.334Z,100736.19
2019-05-17T05:27:31.509Z,100736.02
2019-05-17T05:29:57.974Z,100735.77
2019-05-17T05:32:24.791Z,100736.48
2019-05-17T05:34:52.018Z,100747.05
2019-05-17T05:37:20.865Z,100749.45
2019-05-17T05:39:48.089Z,100747.69
2019-05-17T05:42:15.140Z,100750.92
2019-05-17T05:44:42.631Z,100745.37
2019-05-17T05:47:11.468Z,100749.94
2019-05-17T05:49:38.710Z,100753.91
2019-05-17T05:52:05.596Z,100756.06
2019-05-17T05:54:32.427Z,100738.20
2019-05-17T05:57:02.086Z,100730.26
2019-05-17T05:59:28.452Z,100722.37
2019-05-17T06:01:55.377Z,100733.91
2019-05-17T06:04:22.757Z,100736.67
2019-05-17T06:06:49.590Z,100726.31
2019-05-17T06:09:16.507Z,100735.52
2019-05-17T06:11:43.563Z,100739.89
2019-05-17T06:14:12.162Z,100736.84
2019-05-17T06:16:39.241Z,100735.42
2019-05-17T06:19:06.946Z,100736.03
2019-05-17T06:21:33.749Z,100738.28
2019-05-17T06:24:02.589Z,100742.43
2019-05-17T06:26:31.483Z,100742.61
2019-05-17T06:28:58.529Z,100742.27
2019-05-17T06:31:25.415Z,100733.56
2019-05-17T06:33:52.499Z,100735.25
2019-05-17T06:36:21.722Z,100735.02
2019-05-17T06:38:49.810Z,100736.16
2019-05-17T06:41:16.701Z,100734.87
2019-05-17T06:43:43.916Z,100743.56
2019-05-17T06:46:12.367Z,100741.89
2019-05-17T06:48:42.179Z,100735.04
2019-05-17T06:51:08.273Z,100741.92
2019-05-17T06:53:35.109Z,100738.00
2019-05-17T06:56:02.867Z,100738.92
2019-05-17T06:58:31.508Z,100731.30
2019-05-17T07:00:59.996Z,100721.86
2019-05-17T07:03:29.335Z,100720.66
2019-05-17T07:05:59.521Z,100717.41
2019-05-17T07:08:26.207Z,100725.28
2019-05-17T07:10:53.082Z,100717.00
2019-05-17T07:13:20.239Z,100723.47
2019-05-17T07:15:47.907Z,100713.45
2019-05-17T07:18:15.800Z,100718.69
2019-05-17T07:20:42.689Z,100714.19
2019-05-17T07:23:10.798Z,100720.99
2019-05-17T07:25:39.691Z,100718.47
2019-05-17T07:28:06.597Z,100707.97
2019-05-17T07:30:33.406Z,100701.10
2019-05-17T07:33:00.838Z,100697.18
2019-05-17T07:35:29.888Z,100697.27
2019-05-17T07:37:56.304Z,100694.63
2019-05-17T07:40:23.632Z,100684.95
2019-05-17T07:42:50.397Z,100691.91
2019-05-17T07:45:17.431Z,100682.53
2019-05-17T07:47:44.825Z,100684.98
2019-05-17T07:50:11.887Z,100663.55
2019-05-17T07:52:39.799Z,100660.30
2019-05-17T07:55:07.072Z,100654.32
2019-05-17T07:57:33.970Z,100657.59
2019-05-17T08:00:00.835Z,100650.16
2019-05-17T08:02:30.465Z,100652.45
2019-05-17T08:04:57.349Z,100656.14
2019-05-17T08:07:24.661Z,100658.67
2019-05-17T08:09:51.636Z,100656.53
2019-05-17T08:12:19.989Z,100651.19
2019-05-17T08:14:46.925Z,100653.52
2019-05-17T08:17:13.779Z,100655.15
2019-05-17T08:19:40.778Z,100657.89
2019-05-17T08:22:09.767Z,100661.83
2019-05-17T08:24:36.831Z,100661.02
2019-05-17T08:27:03.740Z,100662.91
2019-05-17T08:29:30.595Z,100656.58
2019-05-17T08:31:57.663Z,100653.47
2019-05-17T08:34:24.792Z,100650.80
2019-05-17T08:36:52.577Z,100644.70
2019-05-17T08:39:19.804Z,100655.33
2019-05-17T08:41:46.850Z,100653.13
2019-05-17T08:44:13.782Z,100650.84
2019-05-17T08:46:40.595Z,100645.07
2019-05-17T08:49:09.608Z,100643.84
2019-05-17T08:51:36.361Z,100639.84
2019-05-17T08:54:03.260Z,100645.46
2019-05-17T08:56:30.852Z,100649.09
2019-05-17T08:59:00.519Z,100640.64
2019-05-17T09:01:26.893Z,100639.12
2019-05-17T09:03:53.770Z,100637.69
2019-05-17T09:06:20.944Z,100632.23
2019-05-17T09:08:49.922Z,100628.04
2019-05-17T09:11:16.627Z,100631.84
2019-05-17T09:13:54.610Z,100628.51
2019-05-17T09:16:12.260Z,100624.56
2019-05-17T09:18:39.546Z,100627.55
2019-05-17T09:21:09.563Z,100628.56
2019-05-17T09:23:35.929Z,100624.84
2019-05-17T09:26:02.812Z,100620.34
2019-05-17T09:28:30.195Z,100618.79
2019-05-17T09:30:59.679Z,100616.62
2019-05-17T09:33:25.829Z,100616.76
2019-05-17T09:35:52.624Z,100617.95
2019-05-17T09:38:23.090Z,100616.66
2019-05-17T09:40:50.439Z,100608.15
2019-05-17T09:43:20.484Z,100614.78
2019-05-17T09:45:50.434Z,100606.87
2019-05-17T09:48:19.462Z,100609.00
2019-05-17T09:50:45.597Z,100605.67
2019-05-17T09:53:12.555Z,100603.27
2019-05-17T09:55:39.849Z,100610.65
2019-05-17T09:58:06.915Z,100607.97
2019-05-17T10:00:33.883Z,100606.47
2019-05-17T10:03:00.811Z,100599.85
2019-05-17T10:05:27.686Z,100597.19
2019-05-17T10:07:54.496Z,100598.96
2019-05-17T10:10:21.280Z,100599.84
2019-05-17T10:12:49.647Z,100595.50
2019-05-17T10:15:20.505Z,100588.84
2019-05-17T10:17:47.528Z,100587.64
2019-05-17T10:20:14.779Z,100591.90
2019-05-17T10:22:41.680Z,100596.80
2019-05-17T10:25:09.712Z,100595.83
2019-05-17T10:27:36.812Z,100595.56
2019-05-17T10:30:03.960Z,100595.86
2019-05-17T10:32:31.142Z,100593.14
2019-05-17T10:35:00.126Z,100592.28
2019-05-17T10:37:26.926Z,100587.34
2019-05-17T10:39:53.874Z,100587.69
2019-05-17T10:42:21.219Z,100587.76
2019-05-17T10:44:51.380Z,100583.75
2019-05-17T10:47:19.563Z,100585.77
2019-05-17T10:49:46.830Z,100587.13
2019-05-17T10:52:14.052Z,100585.64
2019-05-17T10:54:40.803Z,100579.34
2019-05-17T10:57:10.251Z,100583.14
2019-05-17T10:59:36.343Z,100583.86
2019-05-17T11:02:03.377Z,100588.23
2019-05-17T11:04:31.172Z,100587.25
2019-05-17T11:06:59.612Z,100584.69
2019-05-17T11:09:26.570Z,100585.36
2019-05-17T11:11:53.356Z,100580.91
2019-05-17T11:14:20.501Z,100586.88
2019-05-17T11:16:47.296Z,100589.16
2019-05-17T11:19:14.370Z,100584.33
2019-05-17T11:21:41.540Z,100582.03
2019-05-17T11:24:08.294Z,100589.45
2019-05-17T11:26:35.209Z,100583.16
2019-05-17T11:29:03.998Z,100584.73
2019-05-17T11:31:30.789Z,100587.94
2019-05-17T11:33:57.584Z,100584.59
2019-05-17T11:36:24.407Z,100583.66
2019-05-17T11:38:53.305Z,100586.13
2019-05-17T11:41:21.717Z,100581.66
2019-05-17T11:43:48.951Z,100582.44
2019-05-17T11:46:15.712Z,100576.92
2019-05-17T11:48:42.570Z,100572.84
2019-05-17T11:51:09.356Z,100567.26
2019-05-17T11:53:36.304Z,100571.81
2019-05-17T11:56:03.195Z,100571.70
2019-05-17T11:58:30.069Z,100566.58
2019-05-17T12:00:57.275Z,100570.16
2019-05-17T12:03:24.324Z,100567.83
2019-05-17T12:05:51.324Z,100564.63
2019-05-17T12:08:18.071Z,100566.83
2019-05-17T12:10:45.044Z,100559.79
2019-05-17T12:13:12.534Z,100558.04
2019-05-17T12:15:44.922Z,100548.45
2019-05-17T12:18:08.099Z,100546.11
2019-05-17T12:20:34.893Z,100551.33
2019-05-17T12:23:01.894Z,100550.77
2019-05-17T12:25:28.783Z,100554.33
2019-05-17T12:27:55.550Z,100550.47
2019-05-17T12:30:22.567Z,100546.38
2019-05-17T12:32:49.596Z,100539.57
2019-05-17T12:35:18.227Z,100537.96
2019-05-17T12:37:45.207Z,100530.80
2019-05-17T12:40:11.971Z,100527.78
2019-05-17T12:42:38.793Z,100527.46
2019-05-17T12:45:05.675Z,100525.42
2019-05-17T12:47:32.567Z,100529.75
2019-05-17T12:49:59.777Z,100521.54
2019-05-17T12:52:26.534Z,100517.52
2019-05-17T12:54:53.313Z,100521.63
2019-05-17T12:57:20.209Z,100518.53
2019-05-17T12:59:47.031Z,100522.02
2019-05-17T13:02:13.780Z,100514.95
2019-05-17T13:04:40.691Z,100516.33
2019-05-17T13:07:07.620Z,100506.04
2019-05-17T13:09:34.423Z,100514.67
2019-05-17T13:12:01.299Z,100517.31
2019-05-17T13:14:28.050Z,100517.25
2019-05-17T13:16:54.862Z,100517.19
2019-05-17T13:19:25.129Z,100515.03
2019-05-17T13:21:50.275Z,100512.46
2019-05-17T13:24:17.252Z,100511.57
2019-05-17T13:26:44.312Z,100511.80
2019-05-17T13:29:11.076Z,100511.19
2019-05-17T13:31:37.863Z,100499.03
2019-05-17T13:34:04.625Z,100497.98
2019-05-17T13:36:31.424Z,100491.20
2019-05-17T13:38:58.190Z,100494.93
2019-05-17T13:41:25.009Z,100486.42
2019-05-17T13:43:51.785Z,100494.13
2019-05-17T13:46:32.044Z,100494.84
2019-05-17T13:48:48.720Z,100491.09
2019-05-17T13:51:15.577Z,100490.48
2019-05-17T13:53:42.327Z,100486.53
2019-05-17T13:56:09.532Z,100491.25
2019-05-17T13:58:36.530Z,100486.45
2019-05-17T14:01:03.458Z,100482.59
2019-05-17T14:03:30.326Z,100479.47
2019-05-17T14:05:57.104Z,100476.44
2019-05-17T14:08:24.084Z,100466.16
2019-05-17T14:10:50.976Z,100472.16
2019-05-17T14:13:17.811Z,100468.45
2019-05-17T14:15:45.058Z,100465.88
2019-05-17T14:18:11.855Z,100464.64
2019-05-17T14:20:38.587Z,100466.02
2019-05-17T14:23:05.450Z,100456.95
2019-05-17T14:25:32.283Z,100459.06
2019-05-17T14:27:59.383Z,100452.14
2019-05-17T14:30:26.317Z,100456.00
2019-05-17T14:32:54.292Z,100458.23
2019-05-17T14:35:21.677Z,100459.41
2019-05-17T14:37:48.471Z,100455.22
2019-05-17T14:40:15.942Z,100458.52
2019-05-17T14:42:42.753Z,100456.14
2019-05-17T14:45:09.884Z,100449.08
2019-05-17T14:47:36.654Z,100452.20
2019-05-17T14:50:03.928Z,100453.23
2019-05-17T14:52:30.939Z,100451.75
2019-05-17T14:54:57.731Z,100444.15
2019-05-17T14:57:24.572Z,100441.41
2019-05-17T14:59:51.627Z,100438.90
2019-05-17T15:02:18.526Z,100437.28
2019-05-17T15:04:45.447Z,100432.44
2019-05-17T15:07:12.198Z,100432.83
2019-05-17T15:09:39.089Z,100431.92
2019-05-17T15:12:06.062Z,100427.13
2019-05-17T15:14:32.926Z,100425.59
2019-05-17T15:16:59.917Z,100423.11
2019-05-17T15:19:26.810Z,100425.88
2019-05-17T15:21:53.663Z,100416.34
2019-05-17T15:24:20.960Z,100426.34
2019-05-17T15:27:04.216Z,100417.83
2019-05-17T15:29:16.892Z,100428.08
2019-05-17T15:31:44.076Z,100426.46
2019-05-17T15:34:10.834Z,100418.81
2019-05-17T15:36:38.754Z,100422.66
2019-05-17T15:39:05.702Z,100419.73
2019-05-17T15:41:32.531Z,100420.05
2019-05-17T15:43:59.455Z,100411.27
2019-05-17T15:46:26.331Z,100415.41
2019-05-17T15:48:54.263Z,100408.34
2019-05-17T15:51:21.034Z,100403.13
2019-05-17T15:53:47.798Z,100402.37
2019-05-17T15:56:14.963Z,100398.52
2019-05-17T15:58:42.169Z,100395.45
2019-05-17T16:01:09.055Z,100393.73
2019-05-17T16:03:35.954Z,100387.30
2019-05-17T16:06:03.220Z,100383.77
2019-05-17T16:08:31.001Z,100385.52
2019-05-17T16:10:57.982Z,100384.30
2019-05-17T16:13:25.491Z,100383.46
2019-05-17T16:15:52.321Z,100384.32
2019-05-17T16:18:19.390Z,100383.97
2019-05-17T16:20:46.260Z,100379.53
2019-05-17T16:23:13.396Z,100372.37
2019-05-17T16:25:40.222Z,100370.52
2019-05-17T16:28:06.996Z,100374.52
2019-05-17T16:30:33.799Z,100376.89
2019-05-17T16:33:00.695Z,100375.40
2019-05-17T16:35:27.604Z,100373.88
2019-05-17T16:37:54.362Z,100372.58
2019-05-17T16:40:21.503Z,100370.95
2019-05-17T16:42:48.408Z,100373.20
2019-05-17T16:45:17.177Z,100370.63
2019-05-17T16:47:44.405Z,100368.89
2019-05-17T16:50:11.933Z,100373.20
2019-05-17T16:52:38.774Z,100376.75
2019-05-17T16:55:05.674Z,100374.95
2019-05-17T16:57:32.754Z,100369.55
2019-05-17T16:59:59.935Z,100367.20
2019-05-17T17:02:27.091Z,100375.37
2019-05-17T17:04:54.978Z,100373.58
2019-05-17T17:07:22.013Z,100370.22
2019-05-17T17:09:49.004Z,100374.31
2019-05-17T17:12:15.784Z,100372.36
2019-05-17T17:14:42.698Z,100373.47
2019-05-17T17:17:12.390Z,100368.83
2019-05-17T17:19:38.382Z,100362.17
2019-05-17T17:22:05.493Z,100365.49
2019-05-17T17:24:32.354Z,100362.73
2019-05-17T17:26:59.193Z,100369.85
2019-05-17T17:29:26.000Z,100363.61
2019-05-17T17:31:53.206Z,100366.90
2019-05-17T17:34:20.145Z,100369.74
2019-05-17T17:36:47.168Z,100363.38
2019-05-17T17:39:14.468Z,100365.83
2019-05-17T17:41:41.377Z,100370.98
2019-05-17T17:44:08.371Z,100374.14
2019-05-17T17:46:35.345Z,100376.24
2019-05-17T17:49:02.197Z,100369.81
2019-05-17T17:51:29.132Z,100370.20
2019-05-17T17:53:55.950Z,100371.49
2019-05-17T17:56:22.695Z,100372.50
2019-05-17T17:58:49.533Z,100372.63
2019-05-17T18:01:16.693Z,100368.43
2019-05-17T18:03:43.454Z,100367.86
2019-05-17T18:06:10.366Z,100366.40
2019-05-17T18:08:37.283Z,100369.52
2019-05-17T18:11:04.115Z,100371.55
2019-05-17T18:13:31.141Z,100366.37
2019-05-17T18:15:58.074Z,100370.42
2019-05-17T18:18:25.125Z,100372.36
2019-05-17T18:20:52.576Z,100371.91
2019-05-17T18:23:23.121Z,100368.80
2019-05-17T18:25:48.286Z,100372.30
2019-05-17T18:28:15.273Z,100378.12
2019-05-17T18:30:42.155Z,100382.08
2019-05-17T18:33:09.607Z,100375.90
2019-05-17T18:35:36.857Z,100387.17
2019-05-17T18:38:04.389Z,100384.85
2019-05-17T18:40:31.417Z,100384.25
2019-05-17T18:42:58.476Z,100390.89
2019-05-17T18:45:25.279Z,100388.52
2019-05-17T18:47:52.108Z,100394.88
2019-05-17T18:50:19.078Z,100395.02
2019-05-17T18:52:46.041Z,100397.36
2019-05-17T18:55:13.091Z,100397.44
2019-05-17T18:57:39.933Z,100404.28
2019-05-17T19:00:07.102Z,100397.85
2019-05-17T19:02:33.910Z,100408.80
2019-05-17T19:05:00.656Z,100411.67
2019-05-17T19:07:27.799Z,100413.00
2019-05-17T19:09:54.552Z,100422.61
2019-05-17T19:12:21.359Z,100424.66
2019-05-17T19:14:48.411Z,100424.19
2019-05-17T19:17:15.228Z,100424.40
2019-05-17T19:19:42.435Z,100425.80
2019-05-17T19:22:09.645Z,100426.73
2019-05-17T19:24:36.412Z,100437.52
2019-05-17T19:27:03.622Z,100428.05
2019-05-17T19:29:30.800Z,100429.77
2019-05-17T19:31:58.639Z,100433.41
2019-05-17T19:34:25.490Z,100439.67
2019-05-17T19:36:52.498Z,100435.60
2019-05-17T19:39:19.592Z,100434.59
2019-05-17T19:41:46.633Z,100435.06
2019-05-17T19:44:13.432Z,100433.06
2019-05-17T19:46:40.872Z,100432.88
2019-05-17T19:49:08.047Z,100437.24
2019-05-17T19:51:35.086Z,100439.48
2019-05-17T19:54:02.322Z,100439.96
2019-05-17T19:56:29.062Z,100442.25
2019-05-17T19:58:55.885Z,100441.08
2019-05-17T20:01:23.050Z,100435.62
2019-05-17T20:03:50.824Z,100433.57
2019-05-17T20:06:18.129Z,100435.77
2019-05-17T20:08:45.883Z,100434.02
2019-05-17T20:11:13.014Z,100432.75
2019-05-17T20:13:40.063Z,100429.94
2019-05-17T20:16:07.478Z,100441.50
2019-05-17T20:18:34.591Z,100432.75
2019-05-17T20:21:02.565Z,100438.72
2019-05-17T20:23:29.954Z,100434.77
2019-05-17T20:25:57.161Z,100430.92
2019-05-17T20:28:24.204Z,100433.50
2019-05-17T20:30:51.133Z,100438.43
2019-05-17T20:33:18.008Z,100429.34
2019-05-17T20:35:44.837Z,100432.31
2019-05-17T20:38:11.765Z,100434.42
2019-05-17T20:40:38.743Z,100432.71
2019-05-17T20:43:05.642Z,100430.86
2019-05-17T20:45:33.771Z,100423.69
2019-05-17T20:48:00.756Z,100424.63
2019-05-17T20:50:27.395Z,100420.80
2019-05-17T20:52:54.162Z,100417.41
2019-05-17T20:55:21.108Z,100416.83
2019-05-17T20:57:47.951Z,100416.94
2019-05-17T21:00:17.018Z,100412.45
2019-05-17T21:02:43.816Z,100411.27
2019-05-17T21:05:14.798Z,100421.78
2019-05-17T21:07:41.588Z,100415.00
2019-05-17T21:10:10.554Z,100417.29
2019-05-17T21:12:38.156Z,100416.20
2019-05-17T21:15:05.346Z,100412.29
2019-05-17T21:17:32.075Z,100412.95
2019-05-17T21:19:59.037Z,100418.22
2019-05-17T21:22:25.782Z,100413.84
2019-05-17T21:24:52.644Z,100405.34
2019-05-17T21:27:19.742Z,100403.45
2019-05-17T21:29:46.761Z,100410.56
2019-05-17T21:32:13.658Z,100405.27
2019-05-17T21:34:40.780Z,100406.59
2019-05-17T21:37:07.477Z,100403.41
2019-05-17T21:39:34.233Z,100405.50
2019-05-17T21:42:01.304Z,100406.96
2019-05-17T21:44:28.076Z,100403.16
2019-05-17T21:47:04.204Z,100402.25
2019-05-17T21:49:23.592Z,100401.12
2019-05-17T21:51:50.748Z,100400.00
2019-05-17T21:54:17.777Z,100400.17
2019-05-17T21:56:44.752Z,100402.34
2019-05-17T21:59:12.756Z,100398.03
2019-05-17T22:01:39.903Z,100404.73
2019-05-17T22:04:06.762Z,100403.64
2019-05-17T22:06:33.841Z,100396.05
2019-05-17T22:09:00.974Z,100398.42
2019-05-17T22:11:27.840Z,100392.45
2019-05-17T22:13:54.582Z,100392.53
2019-05-17T22:16:21.467Z,100391.14
2019-05-17T22:18:48.313Z,100395.12
2019-05-17T22:21:15.285Z,100392.80
2019-05-17T22:23:42.029Z,100388.03
2019-05-17T22:26:08.787Z,100392.77
2019-05-17T22:28:35.581Z,100389.06
2019-05-17T22:31:02.725Z,100386.23
2019-05-17T22:33:29.473Z,100389.04
2019-05-17T22:35:56.269Z,100389.45
2019-05-17T22:38:23.121Z,100383.20
2019-05-17T22:40:50.009Z,100378.58
2019-05-17T22:43:17.154Z,100381.56
2019-05-17T22:45:44.054Z,100382.23
2019-05-17T22:48:10.865Z,100385.11
2019-05-17T22:50:37.616Z,100386.72
2019-05-17T22:53:04.400Z,100386.83
2019-05-17T22:55:31.246Z,100385.69
2019-05-17T22:57:57.936Z,100384.58
2019-05-17T23:00:24.848Z,100385.16
2019-05-17T23:02:53.718Z,100387.39
2019-05-17T23:05:25.823Z,100389.13
2019-05-17T23:07:49.396Z,100386.70
2019-05-17T23:10:16.284Z,100387.34
2019-05-17T23:12:43.497Z,100388.81
2019-05-17T23:15:10.766Z,100388.03
2019-05-17T23:17:37.581Z,100386.10
2019-05-17T23:20:04.878Z,100391.99
2019-05-17T23:22:31.948Z,100387.55
2019-05-17T23:24:58.819Z,100393.58
2019-05-17T23:27:25.668Z,100389.36
2019-05-17T23:29:52.321Z,100388.18
2019-05-17T23:32:19.251Z,100388.66
2019-05-17T23:34:46.141Z,100389.58
2019-05-17T23:37:12.874Z,100392.44
2019-05-17T23:39:39.520Z,100394.30
2019-05-17T23:42:06.297Z,100390.20
2019-05-17T23:44:33.033Z,100389.39
2019-05-17T23:47:07.214Z,100390.67
2019-05-17T23:49:28.376Z,100383.09
2019-05-17T23:51:55.121Z,100386.55
2019-05-17T23:54:22.289Z,100391.96
2019-05-17T23:56:49.330Z,100388.33
2019-05-17T23:59:16.119Z,100387.23
